sensor_id;sensor_type;location;lat;lon;timestamp;P1;P2;P0
45990;PMS5003;31721;41.740;-88.000;2023-05-23T00:00:17;10;8;
45990;PMS5003;31721;41.740;-88.000;2023-05-23T00:02:45;8;8;
45990;PMS5003;31721;41.740;-88.000;2023-05-23T00:05:13;6;6;
45990;PMS5003;31721;41.740;-88.000;2023-05-23T00:07:41;6;6;
45990;PMS5003;31721;41.740;-88.000;2023-05-23T00:10:08;8;8;
45990;PMS5003;31721;41.740;-88.000;2023-05-23T00:12:37;10;5;
45990;PMS5003;31721;41.740;-88.000;2023-05-23T00:15:05;6;6;
45990;PMS5003;31721;41.740;-88.000;2023-05-23T00:17:34;7;7;
45990;PMS5003;31721;41.740;-88.000;2023-05-23T00:20:03;6;6;
45990;PMS5003;31721;41.740;-88.000;2023-05-23T00:22:31;10;10;
45990;PMS5003;31721;41.740;-88.000;2023-05-23T00:24:59;6;6;
45990;PMS5003;31721;41.740;-88.000;2023-05-23T00:27:26;8;6;
45990;PMS5003;31721;41.740;-88.000;2023-05-23T00:29:54;6;6;
45990;PMS5003;31721;41.740;-88.000;2023-05-23T00:32:22;8;6;
45990;PMS5003;31721;41.740;-88.000;2023-05-23T00:34:49;10;8;
45990;PMS5003;31721;41.740;-88.000;2023-05-23T00:37:17;7;6;
45990;PMS5003;31721;41.740;-88.000;2023-05-23T00:39:46;10;7;
45990;PMS5003;31721;41.740;-88.000;2023-05-23T00:42:13;6;6;
45990;PMS5003;31721;41.740;-88.000;2023-05-23T00:44:41;12;11;
45990;PMS5003;31721;41.740;-88.000;2023-05-23T00:47:09;9;7;
45990;PMS5003;31721;41.740;-88.000;2023-05-23T00:49:36;8;7;
45990;PMS5003;31721;41.740;-88.000;2023-05-23T00:52:05;9;7;
45990;PMS5003;31721;41.740;-88.000;2023-05-23T00:54:33;7;6;
45990;PMS5003;31721;41.740;-88.000;2023-05-23T00:57:03;13;11;
45990;PMS5003;31721;41.740;-88.000;2023-05-23T00:59:31;8;7;
45990;PMS5003;31721;41.740;-88.000;2023-05-23T01:02:02;6;5;
45990;PMS5003;31721;41.740;-88.000;2023-05-23T01:04:30;6;6;
45990;PMS5003;31721;41.740;-88.000;2023-05-23T01:06:58;10;8;
45990;PMS5003;31721;41.740;-88.000;2023-05-23T01:09:27;7;6;
45990;PMS5003;31721;41.740;-88.000;2023-05-23T01:12:00;6;6;
45990;PMS5003;31721;41.740;-88.000;2023-05-23T01:14:36;5;5;
45990;PMS5003;31721;41.740;-88.000;2023-05-23T01:17:10;10;9;
45990;PMS5003;31721;41.740;-88.000;2023-05-23T01:19:48;7;7;
45990;PMS5003;31721;41.740;-88.000;2023-05-23T01:22:28;8;8;
45990;PMS5003;31721;41.740;-88.000;2023-05-23T01:25:07;11;8;
45990;PMS5003;31721;41.740;-88.000;2023-05-23T01:27:47;6;6;
45990;PMS5003;31721;41.740;-88.000;2023-05-23T01:30:19;15;13;
45990;PMS5003;31721;41.740;-88.000;2023-05-23T01:32:49;6;5;
45990;PMS5003;31721;41.740;-88.000;2023-05-23T01:35:21;7;6;
45990;PMS5003;31721;41.740;-88.000;2023-05-23T01:37:51;7;7;
45990;PMS5003;31721;41.740;-88.000;2023-05-23T01:40:19;8;8;
45990;PMS5003;31721;41.740;-88.000;2023-05-23T01:42:47;11;8;
45990;PMS5003;31721;41.740;-88.000;2023-05-23T01:45:16;8;8;
45990;PMS5003;31721;41.740;-88.000;2023-05-23T01:47:45;7;7;
45990;PMS5003;31721;41.740;-88.000;2023-05-23T01:50:16;10;8;
45990;PMS5003;31721;41.740;-88.000;2023-05-23T01:52:44;15;11;
45990;PMS5003;31721;41.740;-88.000;2023-05-23T01:55:13;7;7;
45990;PMS5003;31721;41.740;-88.000;2023-05-23T01:57:46;10;8;
45990;PMS5003;31721;41.740;-88.000;2023-05-23T02:00:17;9;9;
45990;PMS5003;31721;41.740;-88.000;2023-05-23T02:02:45;8;8;
45990;PMS5003;31721;41.740;-88.000;2023-05-23T02:05:14;15;13;
45990;PMS5003;31721;41.740;-88.000;2023-05-23T02:07:42;10;9;
45990;PMS5003;31721;41.740;-88.000;2023-05-23T02:10:10;8;7;
45990;PMS5003;31721;41.740;-88.000;2023-05-23T02:12:38;6;6;
45990;PMS5003;31721;41.740;-88.000;2023-05-23T02:15:07;10;10;
45990;PMS5003;31721;41.740;-88.000;2023-05-23T02:17:35;9;7;
45990;PMS5003;31721;41.740;-88.000;2023-05-23T02:20:03;10;9;
45990;PMS5003;31721;41.740;-88.000;2023-05-23T02:22:31;8;8;
45990;PMS5003;31721;41.740;-88.000;2023-05-23T02:24:59;13;8;
45990;PMS5003;31721;41.740;-88.000;2023-05-23T02:27:27;12;8;
45990;PMS5003;31721;41.740;-88.000;2023-05-23T02:29:55;11;11;
45990;PMS5003;31721;41.740;-88.000;2023-05-23T02:32:22;10;8;
45990;PMS5003;31721;41.740;-88.000;2023-05-23T02:34:50;7;7;
45990;PMS5003;31721;41.740;-88.000;2023-05-23T02:37:18;8;7;
45990;PMS5003;31721;41.740;-88.000;2023-05-23T02:39:46;8;8;
45990;PMS5003;31721;41.740;-88.000;2023-05-23T02:42:14;9;8;
45990;PMS5003;31721;41.740;-88.000;2023-05-23T02:44:42;10;9;
45990;PMS5003;31721;41.740;-88.000;2023-05-23T02:47:10;11;11;
45990;PMS5003;31721;41.740;-88.000;2023-05-23T02:49:38;9;9;
45990;PMS5003;31721;41.740;-88.000;2023-05-23T02:52:05;10;10;
45990;PMS5003;31721;41.740;-88.000;2023-05-23T02:54:33;19;18;
45990;PMS5003;31721;41.740;-88.000;2023-05-23T02:57:01;31;31;
45990;PMS5003;31721;41.740;-88.000;2023-05-23T02:59:29;34;33;
45990;PMS5003;31721;41.740;-88.000;2023-05-23T03:01:57;26;26;
45990;PMS5003;31721;41.740;-88.000;2023-05-23T03:04:26;15;15;
45990;PMS5003;31721;41.740;-88.000;2023-05-23T03:06:53;34;33;
45990;PMS5003;31721;41.740;-88.000;2023-05-23T03:09:21;30;30;
45990;PMS5003;31721;41.740;-88.000;2023-05-23T03:11:49;12;11;
45990;PMS5003;31721;41.740;-88.000;2023-05-23T03:14:17;20;19;
45990;PMS5003;31721;41.740;-88.000;2023-05-23T03:16:45;11;9;
45990;PMS5003;31721;41.740;-88.000;2023-05-23T03:19:13;13;11;
45990;PMS5003;31721;41.740;-88.000;2023-05-23T03:21:40;18;14;
45990;PMS5003;31721;41.740;-88.000;2023-05-23T03:24:08;14;12;
45990;PMS5003;31721;41.740;-88.000;2023-05-23T03:26:36;17;17;
45990;PMS5003;31721;41.740;-88.000;2023-05-23T03:29:04;20;17;
45990;PMS5003;31721;41.740;-88.000;2023-05-23T03:31:31;18;17;
45990;PMS5003;31721;41.740;-88.000;2023-05-23T03:33:59;55;54;
45990;PMS5003;31721;41.740;-88.000;2023-05-23T03:36:27;22;15;
45990;PMS5003;31721;41.740;-88.000;2023-05-23T03:38:55;23;22;
45990;PMS5003;31721;41.740;-88.000;2023-05-23T03:41:23;34;32;
45990;PMS5003;31721;41.740;-88.000;2023-05-23T03:43:50;19;19;
45990;PMS5003;31721;41.740;-88.000;2023-05-23T03:46:18;19;19;
45990;PMS5003;31721;41.740;-88.000;2023-05-23T03:48:46;11;11;
45990;PMS5003;31721;41.740;-88.000;2023-05-23T03:51:14;9;9;
45990;PMS5003;31721;41.740;-88.000;2023-05-23T03:53:42;9;9;
45990;PMS5003;31721;41.740;-88.000;2023-05-23T03:56:10;10;8;
45990;PMS5003;31721;41.740;-88.000;2023-05-23T03:58:37;16;10;
45990;PMS5003;31721;41.740;-88.000;2023-05-23T04:01:05;13;9;
45990;PMS5003;31721;41.740;-88.000;2023-05-23T04:03:33;9;9;
45990;PMS5003;31721;41.740;-88.000;2023-05-23T04:06:00;10;9;
45990;PMS5003;31721;41.740;-88.000;2023-05-23T04:08:28;13;10;
45990;PMS5003;31721;41.740;-88.000;2023-05-23T04:10:56;13;10;
45990;PMS5003;31721;41.740;-88.000;2023-05-23T04:13:24;17;16;
45990;PMS5003;31721;41.740;-88.000;2023-05-23T04:15:51;20;19;
45990;PMS5003;31721;41.740;-88.000;2023-05-23T04:18:19;15;13;
45990;PMS5003;31721;41.740;-88.000;2023-05-23T04:20:47;12;11;
45990;PMS5003;31721;41.740;-88.000;2023-05-23T04:23:15;12;10;
45990;PMS5003;31721;41.740;-88.000;2023-05-23T04:25:43;12;11;
45990;PMS5003;31721;41.740;-88.000;2023-05-23T04:28:11;8;8;
45990;PMS5003;31721;41.740;-88.000;2023-05-23T04:30:39;11;11;
45990;PMS5003;31721;41.740;-88.000;2023-05-23T04:33:07;16;12;
45990;PMS5003;31721;41.740;-88.000;2023-05-23T04:35:34;13;11;
45990;PMS5003;31721;41.740;-88.000;2023-05-23T04:38:02;16;16;
45990;PMS5003;31721;41.740;-88.000;2023-05-23T04:40:31;18;17;
45990;PMS5003;31721;41.740;-88.000;2023-05-23T04:42:58;18;14;
45990;PMS5003;31721;41.740;-88.000;2023-05-23T04:45:26;18;16;
45990;PMS5003;31721;41.740;-88.000;2023-05-23T04:47:53;18;13;
45990;PMS5003;31721;41.740;-88.000;2023-05-23T04:50:21;27;19;
45990;PMS5003;31721;41.740;-88.000;2023-05-23T04:52:49;15;13;
45990;PMS5003;31721;41.740;-88.000;2023-05-23T04:55:16;16;13;
45990;PMS5003;31721;41.740;-88.000;2023-05-23T04:57:44;13;11;
45990;PMS5003;31721;41.740;-88.000;2023-05-23T05:00:12;16;13;
45990;PMS5003;31721;41.740;-88.000;2023-05-23T05:02:40;13;12;
45990;PMS5003;31721;41.740;-88.000;2023-05-23T05:05:08;13;13;
45990;PMS5003;31721;41.740;-88.000;2023-05-23T05:07:37;14;11;
45990;PMS5003;31721;41.740;-88.000;2023-05-23T05:10:05;12;11;
45990;PMS5003;31721;41.740;-88.000;2023-05-23T05:12:33;16;14;
45990;PMS5003;31721;41.740;-88.000;2023-05-23T05:15:02;16;13;
45990;PMS5003;31721;41.740;-88.000;2023-05-23T05:17:29;9;9;
45990;PMS5003;31721;41.740;-88.000;2023-05-23T05:19:57;15;13;
45990;PMS5003;31721;41.740;-88.000;2023-05-23T05:22:25;9;8;
45990;PMS5003;31721;41.740;-88.000;2023-05-23T05:24:53;14;12;
45990;PMS5003;31721;41.740;-88.000;2023-05-23T05:27:21;13;10;
45990;PMS5003;31721;41.740;-88.000;2023-05-23T05:29:49;13;11;
45990;PMS5003;31721;41.740;-88.000;2023-05-23T05:32:17;12;11;
45990;PMS5003;31721;41.740;-88.000;2023-05-23T05:34:45;11;10;
45990;PMS5003;31721;41.740;-88.000;2023-05-23T05:37:13;14;12;
45990;PMS5003;31721;41.740;-88.000;2023-05-23T05:39:41;11;11;
45990;PMS5003;31721;41.740;-88.000;2023-05-23T05:42:08;15;12;
45990;PMS5003;31721;41.740;-88.000;2023-05-23T05:44:36;12;11;
45990;PMS5003;31721;41.740;-88.000;2023-05-23T05:47:04;21;17;
45990;PMS5003;31721;41.740;-88.000;2023-05-23T05:49:32;15;15;
45990;PMS5003;31721;41.740;-88.000;2023-05-23T05:52:00;17;17;
45990;PMS5003;31721;41.740;-88.000;2023-05-23T05:54:27;19;13;
45990;PMS5003;31721;41.740;-88.000;2023-05-23T05:56:55;20;19;
45990;PMS5003;31721;41.740;-88.000;2023-05-23T05:59:22;14;12;
45990;PMS5003;31721;41.740;-88.000;2023-05-23T06:01:50;19;17;
45990;PMS5003;31721;41.740;-88.000;2023-05-23T06:04:19;16;15;
45990;PMS5003;31721;41.740;-88.000;2023-05-23T06:06:46;13;11;
45990;PMS5003;31721;41.740;-88.000;2023-05-23T06:09:14;10;10;
45990;PMS5003;31721;41.740;-88.000;2023-05-23T06:11:41;13;13;
45990;PMS5003;31721;41.740;-88.000;2023-05-23T06:14:09;9;9;
45990;PMS5003;31721;41.740;-88.000;2023-05-23T06:16:37;11;11;
45990;PMS5003;31721;41.740;-88.000;2023-05-23T06:19:05;15;13;
45990;PMS5003;31721;41.740;-88.000;2023-05-23T06:21:32;9;9;
45990;PMS5003;31721;41.740;-88.000;2023-05-23T06:24:00;11;10;
45990;PMS5003;31721;41.740;-88.000;2023-05-23T06:26:28;9;9;
45990;PMS5003;31721;41.740;-88.000;2023-05-23T06:28:55;11;11;
45990;PMS5003;31721;41.740;-88.000;2023-05-23T06:31:23;13;12;
45990;PMS5003;31721;41.740;-88.000;2023-05-23T06:33:51;12;9;
45990;PMS5003;31721;41.740;-88.000;2023-05-23T06:36:19;21;13;
45990;PMS5003;31721;41.740;-88.000;2023-05-23T06:38:47;19;15;
45990;PMS5003;31721;41.740;-88.000;2023-05-23T06:41:15;20;17;
45990;PMS5003;31721;41.740;-88.000;2023-05-23T06:43:43;14;11;
45990;PMS5003;31721;41.740;-88.000;2023-05-23T06:46:11;14;14;
45990;PMS5003;31721;41.740;-88.000;2023-05-23T06:48:39;19;16;
45990;PMS5003;31721;41.740;-88.000;2023-05-23T06:51:06;16;13;
45990;PMS5003;31721;41.740;-88.000;2023-05-23T06:53:34;17;14;
45990;PMS5003;31721;41.740;-88.000;2023-05-23T06:56:02;15;15;
45990;PMS5003;31721;41.740;-88.000;2023-05-23T06:58:29;16;14;
45990;PMS5003;31721;41.740;-88.000;2023-05-23T07:00:57;15;14;
45990;PMS5003;31721;41.740;-88.000;2023-05-23T07:03:25;18;14;
45990;PMS5003;31721;41.740;-88.000;2023-05-23T07:05:52;19;18;
45990;PMS5003;31721;41.740;-88.000;2023-05-23T07:08:20;17;15;
45990;PMS5003;31721;41.740;-88.000;2023-05-23T07:10:47;17;16;
45990;PMS5003;31721;41.740;-88.000;2023-05-23T07:13:15;20;20;
45990;PMS5003;31721;41.740;-88.000;2023-05-23T07:15:43;19;15;
45990;PMS5003;31721;41.740;-88.000;2023-05-23T07:18:10;11;9;
45990;PMS5003;31721;41.740;-88.000;2023-05-23T07:20:38;12;12;
45990;PMS5003;31721;41.740;-88.000;2023-05-23T07:23:05;14;12;
45990;PMS5003;31721;41.740;-88.000;2023-05-23T07:25:33;28;23;
45990;PMS5003;31721;41.740;-88.000;2023-05-23T07:28:01;16;15;
45990;PMS5003;31721;41.740;-88.000;2023-05-23T07:30:29;24;22;
45990;PMS5003;31721;41.740;-88.000;2023-05-23T07:32:57;30;30;
45990;PMS5003;31721;41.740;-88.000;2023-05-23T07:35:24;13;13;
45990;PMS5003;31721;41.740;-88.000;2023-05-23T07:37:52;12;12;
45990;PMS5003;31721;41.740;-88.000;2023-05-23T07:40:21;13;11;
45990;PMS5003;31721;41.740;-88.000;2023-05-23T07:42:49;12;10;
45990;PMS5003;31721;41.740;-88.000;2023-05-23T07:45:17;17;16;
45990;PMS5003;31721;41.740;-88.000;2023-05-23T07:47:45;14;14;
45990;PMS5003;31721;41.740;-88.000;2023-05-23T07:50:12;12;12;
45990;PMS5003;31721;41.740;-88.000;2023-05-23T07:52:40;16;13;
45990;PMS5003;31721;41.740;-88.000;2023-05-23T07:55:08;26;25;
45990;PMS5003;31721;41.740;-88.000;2023-05-23T07:57:36;37;31;
45990;PMS5003;31721;41.740;-88.000;2023-05-23T08:00:04;14;13;
45990;PMS5003;31721;41.740;-88.000;2023-05-23T08:02:33;32;29;
45990;PMS5003;31721;41.740;-88.000;2023-05-23T08:05:01;20;17;
45990;PMS5003;31721;41.740;-88.000;2023-05-23T08:07:28;28;25;
45990;PMS5003;31721;41.740;-88.000;2023-05-23T08:09:56;40;36;
45990;PMS5003;31721;41.740;-88.000;2023-05-23T08:12:24;14;14;
45990;PMS5003;31721;41.740;-88.000;2023-05-23T08:14:52;19;16;
45990;PMS5003;31721;41.740;-88.000;2023-05-23T08:17:19;15;14;
45990;PMS5003;31721;41.740;-88.000;2023-05-23T08:19:47;36;34;
45990;PMS5003;31721;41.740;-88.000;2023-05-23T08:22:14;81;80;
45990;PMS5003;31721;41.740;-88.000;2023-05-23T08:24:42;22;20;
45990;PMS5003;31721;41.740;-88.000;2023-05-23T08:27:10;137;136;
45990;PMS5003;31721;41.740;-88.000;2023-05-23T08:29:37;25;22;
45990;PMS5003;31721;41.740;-88.000;2023-05-23T08:32:05;238;237;
45990;PMS5003;31721;41.740;-88.000;2023-05-23T08:34:33;118;118;
45990;PMS5003;31721;41.740;-88.000;2023-05-23T08:37:00;97;94;
45990;PMS5003;31721;41.740;-88.000;2023-05-23T08:39:28;19;17;
45990;PMS5003;31721;41.740;-88.000;2023-05-23T08:41:56;18;16;
45990;PMS5003;31721;41.740;-88.000;2023-05-23T08:44:24;25;22;
45990;PMS5003;31721;41.740;-88.000;2023-05-23T08:46:52;35;35;
45990;PMS5003;31721;41.740;-88.000;2023-05-23T08:49:20;21;19;
45990;PMS5003;31721;41.740;-88.000;2023-05-23T08:51:50;14;14;
45990;PMS5003;31721;41.740;-88.000;2023-05-23T08:54:20;66;63;
45990;PMS5003;31721;41.740;-88.000;2023-05-23T08:56:47;30;29;
45990;PMS5003;31721;41.740;-88.000;2023-05-23T08:59:15;14;14;
45990;PMS5003;31721;41.740;-88.000;2023-05-23T09:01:42;26;24;
45990;PMS5003;31721;41.740;-88.000;2023-05-23T09:04:11;47;46;
45990;PMS5003;31721;41.740;-88.000;2023-05-23T09:06:38;22;22;
45990;PMS5003;31721;41.740;-88.000;2023-05-23T09:09:06;21;20;
45990;PMS5003;31721;41.740;-88.000;2023-05-23T09:11:34;43;42;
45990;PMS5003;31721;41.740;-88.000;2023-05-23T09:14:03;39;39;
45990;PMS5003;31721;41.740;-88.000;2023-05-23T09:16:31;26;24;
45990;PMS5003;31721;41.740;-88.000;2023-05-23T09:18:59;27;25;
45990;PMS5003;31721;41.740;-88.000;2023-05-23T09:21:36;31;30;
45990;PMS5003;31721;41.740;-88.000;2023-05-23T09:24:09;17;16;
45990;PMS5003;31721;41.740;-88.000;2023-05-23T09:26:37;15;14;
45990;PMS5003;31721;41.740;-88.000;2023-05-23T09:29:05;39;38;
45990;PMS5003;31721;41.740;-88.000;2023-05-23T09:31:34;23;23;
45990;PMS5003;31721;41.740;-88.000;2023-05-23T09:34:02;49;49;
45990;PMS5003;31721;41.740;-88.000;2023-05-23T09:36:29;19;18;
45990;PMS5003;31721;41.740;-88.000;2023-05-23T09:39:01;31;31;
45990;PMS5003;31721;41.740;-88.000;2023-05-23T09:41:31;27;27;
45990;PMS5003;31721;41.740;-88.000;2023-05-23T09:44:03;16;16;
45990;PMS5003;31721;41.740;-88.000;2023-05-23T09:46:33;21;21;
45990;PMS5003;31721;41.740;-88.000;2023-05-23T09:49:03;15;15;
45990;PMS5003;31721;41.740;-88.000;2023-05-23T09:51:42;43;41;
45990;PMS5003;31721;41.740;-88.000;2023-05-23T09:54:10;47;42;
45990;PMS5003;31721;41.740;-88.000;2023-05-23T09:56:39;26;24;
45990;PMS5003;31721;41.740;-88.000;2023-05-23T09:59:08;27;25;
45990;PMS5003;31721;41.740;-88.000;2023-05-23T10:01:39;21;17;
45990;PMS5003;31721;41.740;-88.000;2023-05-23T10:04:10;45;45;
45990;PMS5003;31721;41.740;-88.000;2023-05-23T10:06:40;33;27;
45990;PMS5003;31721;41.740;-88.000;2023-05-23T10:09:16;29;27;
45990;PMS5003;31721;41.740;-88.000;2023-05-23T10:12:50;28;24;
45990;PMS5003;31721;41.740;-88.000;2023-05-23T10:15:22;27;27;
45990;PMS5003;31721;41.740;-88.000;2023-05-23T10:17:59;24;24;
45990;PMS5003;31721;41.740;-88.000;2023-05-23T10:20:31;30;26;
45990;PMS5003;31721;41.740;-88.000;2023-05-23T10:23:00;23;23;
45990;PMS5003;31721;41.740;-88.000;2023-05-23T10:25:30;37;31;
45990;PMS5003;31721;41.740;-88.000;2023-05-23T10:27:58;33;30;
45990;PMS5003;31721;41.740;-88.000;2023-05-23T10:30:27;33;32;
45990;PMS5003;31721;41.740;-88.000;2023-05-23T10:32:55;29;28;
45990;PMS5003;31721;41.740;-88.000;2023-05-23T10:35:29;30;29;
45990;PMS5003;31721;41.740;-88.000;2023-05-23T10:38:06;38;38;
45990;PMS5003;31721;41.740;-88.000;2023-05-23T10:40:47;34;34;
45990;PMS5003;31721;41.740;-88.000;2023-05-23T10:43:24;29;29;
45990;PMS5003;31721;41.740;-88.000;2023-05-23T10:45:56;36;36;
45990;PMS5003;31721;41.740;-88.000;2023-05-23T10:48:31;39;37;
45990;PMS5003;31721;41.740;-88.000;2023-05-23T10:51:03;46;46;
45990;PMS5003;31721;41.740;-88.000;2023-05-23T10:53:34;37;37;
45990;PMS5003;31721;41.740;-88.000;2023-05-23T10:56:03;37;35;
45990;PMS5003;31721;41.740;-88.000;2023-05-23T10:58:32;37;37;
45990;PMS5003;31721;41.740;-88.000;2023-05-23T11:01:01;39;38;
45990;PMS5003;31721;41.740;-88.000;2023-05-23T11:03:33;35;35;
45990;PMS5003;31721;41.740;-88.000;2023-05-23T11:06:03;36;35;
45990;PMS5003;31721;41.740;-88.000;2023-05-23T11:08:39;35;31;
45990;PMS5003;31721;41.740;-88.000;2023-05-23T11:11:07;47;45;
45990;PMS5003;31721;41.740;-88.000;2023-05-23T11:14:08;68;67;
45990;PMS5003;31721;41.740;-88.000;2023-05-23T11:16:39;66;65;
45990;PMS5003;31721;41.740;-88.000;2023-05-23T11:19:24;69;65;
45990;PMS5003;31721;41.740;-88.000;2023-05-23T11:21:54;49;49;
45990;PMS5003;31721;41.740;-88.000;2023-05-23T11:24:46;41;40;
45990;PMS5003;31721;41.740;-88.000;2023-05-23T11:27:14;23;22;
45990;PMS5003;31721;41.740;-88.000;2023-05-23T11:29:42;22;20;
45990;PMS5003;31721;41.740;-88.000;2023-05-23T11:32:09;23;21;
45990;PMS5003;31721;41.740;-88.000;2023-05-23T11:34:38;15;14;
45990;PMS5003;31721;41.740;-88.000;2023-05-23T11:37:07;25;25;
45990;PMS5003;31721;41.740;-88.000;2023-05-23T11:39:35;22;19;
45990;PMS5003;31721;41.740;-88.000;2023-05-23T11:42:03;21;19;
45990;PMS5003;31721;41.740;-88.000;2023-05-23T11:44:31;15;15;
45990;PMS5003;31721;41.740;-88.000;2023-05-23T11:46:59;32;32;
45990;PMS5003;31721;41.740;-88.000;2023-05-23T11:49:27;25;21;
45990;PMS5003;31721;41.740;-88.000;2023-05-23T11:51:56;67;63;
45990;PMS5003;31721;41.740;-88.000;2023-05-23T11:54:25;338;337;
45990;PMS5003;31721;41.740;-88.000;2023-05-23T11:56:53;346;343;
45990;PMS5003;31721;41.740;-88.000;2023-05-23T11:59:22;191;191;
45990;PMS5003;31721;41.740;-88.000;2023-05-23T12:01:52;25;25;
45990;PMS5003;31721;41.740;-88.000;2023-05-23T12:04:20;35;34;
45990;PMS5003;31721;41.740;-88.000;2023-05-23T12:06:48;14;14;
45990;PMS5003;31721;41.740;-88.000;2023-05-23T12:09:16;13;8;
45990;PMS5003;31721;41.740;-88.000;2023-05-23T12:11:44;9;9;
45990;PMS5003;31721;41.740;-88.000;2023-05-23T12:14:14;11;9;
45990;PMS5003;31721;41.740;-88.000;2023-05-23T12:16:43;9;9;
45990;PMS5003;31721;41.740;-88.000;2023-05-23T12:19:12;11;8;
45990;PMS5003;31721;41.740;-88.000;2023-05-23T12:21:41;9;9;
45990;PMS5003;31721;41.740;-88.000;2023-05-23T12:24:11;10;10;
45990;PMS5003;31721;41.740;-88.000;2023-05-23T12:26:48;10;10;
45990;PMS5003;31721;41.740;-88.000;2023-05-23T12:29:18;9;8;
45990;PMS5003;31721;41.740;-88.000;2023-05-23T12:31:48;11;9;
45990;PMS5003;31721;41.740;-88.000;2023-05-23T12:34:16;8;8;
45990;PMS5003;31721;41.740;-88.000;2023-05-23T12:36:46;9;8;
45990;PMS5003;31721;41.740;-88.000;2023-05-23T12:39:14;8;8;
45990;PMS5003;31721;41.740;-88.000;2023-05-23T12:41:41;13;11;
45990;PMS5003;31721;41.740;-88.000;2023-05-23T12:44:13;10;10;
45990;PMS5003;31721;41.740;-88.000;2023-05-23T12:46:41;13;11;
45990;PMS5003;31721;41.740;-88.000;2023-05-23T12:49:10;11;11;
45990;PMS5003;31721;41.740;-88.000;2023-05-23T12:51:39;15;13;
45990;PMS5003;31721;41.740;-88.000;2023-05-23T12:54:07;15;12;
45990;PMS5003;31721;41.740;-88.000;2023-05-23T12:56:35;10;10;
45990;PMS5003;31721;41.740;-88.000;2023-05-23T12:59:03;11;10;
45990;PMS5003;31721;41.740;-88.000;2023-05-23T13:01:31;38;38;
45990;PMS5003;31721;41.740;-88.000;2023-05-23T13:04:00;34;31;
45990;PMS5003;31721;41.740;-88.000;2023-05-23T13:06:28;17;16;
45990;PMS5003;31721;41.740;-88.000;2023-05-23T13:08:56;9;8;
45990;PMS5003;31721;41.740;-88.000;2023-05-23T13:11:25;13;12;
45990;PMS5003;31721;41.740;-88.000;2023-05-23T13:13:53;17;14;
45990;PMS5003;31721;41.740;-88.000;2023-05-23T13:16:20;12;11;
45990;PMS5003;31721;41.740;-88.000;2023-05-23T13:18:47;13;11;
45990;PMS5003;31721;41.740;-88.000;2023-05-23T13:21:16;14;13;
45990;PMS5003;31721;41.740;-88.000;2023-05-23T13:23:44;8;8;
45990;PMS5003;31721;41.740;-88.000;2023-05-23T13:26:11;8;7;
45990;PMS5003;31721;41.740;-88.000;2023-05-23T13:28:39;11;10;
45990;PMS5003;31721;41.740;-88.000;2023-05-23T13:31:06;9;9;
45990;PMS5003;31721;41.740;-88.000;2023-05-23T13:33:34;9;8;
45990;PMS5003;31721;41.740;-88.000;2023-05-23T13:36:02;15;11;
45990;PMS5003;31721;41.740;-88.000;2023-05-23T13:38:30;9;9;
45990;PMS5003;31721;41.740;-88.000;2023-05-23T13:40:58;10;8;
45990;PMS5003;31721;41.740;-88.000;2023-05-23T13:43:26;13;10;
45990;PMS5003;31721;41.740;-88.000;2023-05-23T13:45:54;13;12;
45990;PMS5003;31721;41.740;-88.000;2023-05-23T13:48:21;10;10;
45990;PMS5003;31721;41.740;-88.000;2023-05-23T13:50:50;10;9;
45990;PMS5003;31721;41.740;-88.000;2023-05-23T13:53:18;9;9;
45990;PMS5003;31721;41.740;-88.000;2023-05-23T13:55:45;9;9;
45990;PMS5003;31721;41.740;-88.000;2023-05-23T13:58:13;13;11;
45990;PMS5003;31721;41.740;-88.000;2023-05-23T14:00:41;16;16;
45990;PMS5003;31721;41.740;-88.000;2023-05-23T14:03:09;11;11;
45990;PMS5003;31721;41.740;-88.000;2023-05-23T14:05:37;14;12;
45990;PMS5003;31721;41.740;-88.000;2023-05-23T14:08:05;8;8;
45990;PMS5003;31721;41.740;-88.000;2023-05-23T14:10:33;17;15;
45990;PMS5003;31721;41.740;-88.000;2023-05-23T14:13:01;9;9;
45990;PMS5003;31721;41.740;-88.000;2023-05-23T14:15:29;8;8;
45990;PMS5003;31721;41.740;-88.000;2023-05-23T14:17:56;8;8;
45990;PMS5003;31721;41.740;-88.000;2023-05-23T14:20:24;12;11;
45990;PMS5003;31721;41.740;-88.000;2023-05-23T14:22:51;7;7;
45990;PMS5003;31721;41.740;-88.000;2023-05-23T14:25:19;8;8;
45990;PMS5003;31721;41.740;-88.000;2023-05-23T14:27:48;8;7;
45990;PMS5003;31721;41.740;-88.000;2023-05-23T14:30:15;8;8;
45990;PMS5003;31721;41.740;-88.000;2023-05-23T14:32:43;7;7;
45990;PMS5003;31721;41.740;-88.000;2023-05-23T14:35:11;10;9;
45990;PMS5003;31721;41.740;-88.000;2023-05-23T14:37:39;12;10;
45990;PMS5003;31721;41.740;-88.000;2023-05-23T14:40:07;6;6;
45990;PMS5003;31721;41.740;-88.000;2023-05-23T14:42:35;9;9;
45990;PMS5003;31721;41.740;-88.000;2023-05-23T14:45:03;9;8;
45990;PMS5003;31721;41.740;-88.000;2023-05-23T14:47:31;10;9;
45990;PMS5003;31721;41.740;-88.000;2023-05-23T14:49:59;9;9;
45990;PMS5003;31721;41.740;-88.000;2023-05-23T14:52:27;12;10;
45990;PMS5003;31721;41.740;-88.000;2023-05-23T14:54:55;10;8;
45990;PMS5003;31721;41.740;-88.000;2023-05-23T14:57:22;8;8;
45990;PMS5003;31721;41.740;-88.000;2023-05-23T14:59:50;8;7;
45990;PMS5003;31721;41.740;-88.000;2023-05-23T15:02:18;11;8;
45990;PMS5003;31721;41.740;-88.000;2023-05-23T15:04:46;9;8;
45990;PMS5003;31721;41.740;-88.000;2023-05-23T15:07:14;12;10;
45990;PMS5003;31721;41.740;-88.000;2023-05-23T15:09:41;8;7;
45990;PMS5003;31721;41.740;-88.000;2023-05-23T15:12:09;10;9;
45990;PMS5003;31721;41.740;-88.000;2023-05-23T15:14:37;8;7;
45990;PMS5003;31721;41.740;-88.000;2023-05-23T15:17:05;9;7;
45990;PMS5003;31721;41.740;-88.000;2023-05-23T15:19:32;8;8;
45990;PMS5003;31721;41.740;-88.000;2023-05-23T15:22:00;8;8;
45990;PMS5003;31721;41.740;-88.000;2023-05-23T15:24:40;9;8;
45990;PMS5003;31721;41.740;-88.000;2023-05-23T15:27:08;9;9;
45990;PMS5003;31721;41.740;-88.000;2023-05-23T15:29:36;8;8;
45990;PMS5003;31721;41.740;-88.000;2023-05-23T15:32:04;6;6;
45990;PMS5003;31721;41.740;-88.000;2023-05-23T15:34:32;8;8;
45990;PMS5003;31721;41.740;-88.000;2023-05-23T15:37:00;6;6;
45990;PMS5003;31721;41.740;-88.000;2023-05-23T15:39:28;55;55;
45990;PMS5003;31721;41.740;-88.000;2023-05-23T15:41:56;17;17;
45990;PMS5003;31721;41.740;-88.000;2023-05-23T15:44:25;9;8;
45990;PMS5003;31721;41.740;-88.000;2023-05-23T15:46:52;17;13;
45990;PMS5003;31721;41.740;-88.000;2023-05-23T15:49:20;13;11;
45990;PMS5003;31721;41.740;-88.000;2023-05-23T15:51:48;11;11;
45990;PMS5003;31721;41.740;-88.000;2023-05-23T15:54:16;7;7;
45990;PMS5003;31721;41.740;-88.000;2023-05-23T15:56:44;5;4;
45990;PMS5003;31721;41.740;-88.000;2023-05-23T15:59:11;6;6;
45990;PMS5003;31721;41.740;-88.000;2023-05-23T16:01:39;9;6;
45990;PMS5003;31721;41.740;-88.000;2023-05-23T16:04:07;9;7;